createdAt,value
2023-03-30T00:00:56.399Z,18.55
2023-03-30T00:03:23.775Z,16.48
2023-03-30T00:05:57.283Z,16.40
2023-03-30T00:08:28.889Z,14.70
2023-03-30T00:11:07.376Z,14.38
2023-03-30T00:13:35.710Z,16.77
2023-03-30T00:16:03.690Z,15.73
2023-03-30T00:18:30.742Z,14.95
2023-03-30T00:21:02.886Z,14.73
2023-03-30T00:23:31.081Z,14.98
2023-03-30T00:25:58.359Z,14.50
2023-03-30T00:28:26.047Z,16.02
2023-03-30T00:30:56.708Z,15.98
2023-03-30T00:33:37.205Z,15.57
2023-03-30T00:36:12.218Z,16.17
2023-03-30T00:38:40.201Z,17.63
2023-03-30T00:41:07.724Z,18.77
2023-03-30T00:43:35.197Z,19.67
2023-03-30T00:46:02.449Z,16.02
2023-03-30T00:48:31.740Z,17.13
2023-03-30T00:51:10.539Z,17.67
2023-03-30T00:53:40.045Z,17.65
2023-03-30T00:56:08.775Z,16.88
2023-03-30T00:58:36.801Z,17.67
2023-03-30T01:01:05.640Z,18.63
2023-03-30T01:03:37.200Z,18.50
2023-03-30T01:06:10.298Z,18.48
2023-03-30T01:08:37.765Z,40.35
2023-03-30T01:11:06.553Z,26.45
2023-03-30T01:13:36.233Z,13.93
2023-03-30T01:16:22.112Z,17.13
2023-03-30T01:19:15.962Z,14.75
2023-03-30T01:22:12.908Z,35.05
2023-03-30T01:24:53.457Z,35.75
2023-03-30T01:28:03.081Z,36.05
2023-03-30T01:30:30.310Z,20.50
2023-03-30T01:33:34.667Z,22.02
2023-03-30T01:36:28.193Z,20.63
2023-03-30T01:39:13.705Z,20.70
2023-03-30T01:41:58.062Z,19.85
2023-03-30T01:44:33.430Z,17.83
2023-03-30T01:47:07.268Z,19.25
2023-03-30T01:49:56.087Z,20.42
2023-03-30T01:52:40.978Z,16.90
2023-03-30T01:55:14.534Z,17.92
2023-03-30T01:57:53.720Z,19.92
2023-03-30T02:00:22.950Z,19.77
2023-03-30T02:02:54.523Z,18.98
2023-03-30T02:05:22.680Z,17.55
2023-03-30T02:07:55.098Z,17.80
2023-03-30T02:10:24.223Z,18.13
2023-03-30T02:12:51.467Z,17.35
2023-03-30T02:15:18.631Z,16.13
2023-03-30T02:17:48.392Z,14.40
2023-03-30T02:20:18.798Z,15.80
2023-03-30T02:22:46.593Z,17.23
2023-03-30T02:25:14.066Z,19.02
2023-03-30T02:27:41.911Z,18.48
2023-03-30T02:30:09.801Z,17.08
2023-03-30T02:32:43.585Z,16.80
2023-03-30T02:35:35.288Z,16.40
2023-03-30T02:38:21.110Z,16.50
2023-03-30T02:41:08.511Z,17.45
2023-03-30T02:43:43.756Z,18.40
2023-03-30T02:46:23.254Z,17.98
2023-03-30T02:48:57.286Z,17.30
2023-03-30T02:51:37.502Z,15.85
2023-03-30T02:55:09.656Z,16.38
2023-03-30T02:58:09.907Z,23.10
2023-03-30T03:01:20.302Z,22.45
2023-03-30T03:03:57.965Z,31.05
2023-03-30T03:06:27.421Z,32.95
2023-03-30T03:08:56.252Z,30.60
2023-03-30T03:11:27.356Z,26.65
2023-03-30T03:13:55.565Z,25.13
2023-03-30T03:16:24.029Z,16.77
2023-03-30T03:19:07.977Z,19.42
2023-03-30T03:21:36.669Z,18.60
2023-03-30T03:24:04.842Z,18.08
2023-03-30T03:26:51.018Z,16.52
2023-03-30T03:29:19.653Z,15.70
2023-03-30T03:31:47.478Z,14.20
2023-03-30T03:34:15.406Z,15.10
2023-03-30T03:36:55.000Z,16.05
2023-03-30T03:39:25.666Z,15.55
2023-03-30T03:41:58.085Z,14.43
2023-03-30T03:44:25.659Z,15.73
2023-03-30T03:46:53.466Z,16.08
2023-03-30T03:49:20.781Z,12.45
2023-03-30T03:51:48.472Z,11.90
2023-03-30T03:54:16.146Z,10.38
2023-03-30T03:56:44.642Z,11.38
2023-03-30T03:59:11.668Z,9.85
2023-03-30T04:01:40.602Z,9.80
2023-03-30T04:04:08.971Z,10.60
2023-03-30T04:06:36.762Z,9.93
2023-03-30T04:09:04.315Z,9.88
2023-03-30T04:12:06.005Z,9.00
2023-03-30T04:14:41.657Z,5.90
2023-03-30T04:17:38.132Z,5.63
2023-03-30T04:20:23.316Z,5.80
2023-03-30T04:23:21.478Z,6.70
2023-03-30T04:26:13.812Z,5.85
2023-03-30T04:29:20.555Z,6.38
2023-03-30T04:32:12.452Z,7.63
2023-03-30T04:34:55.019Z,6.53
2023-03-30T04:37:51.968Z,5.55
2023-03-30T04:40:31.252Z,6.25
2023-03-30T04:43:09.602Z,5.97
2023-03-30T04:45:55.998Z,5.78
2023-03-30T04:48:23.811Z,5.00
2023-03-30T04:51:06.885Z,4.22
2023-03-30T04:53:52.782Z,4.32
2023-03-30T04:59:11.725Z,5.95
2023-03-30T05:01:58.512Z,7.30
2023-03-30T05:04:51.633Z,7.45
2023-03-30T05:07:37.473Z,7.32
2023-03-30T05:10:27.274Z,7.45
2023-03-30T05:13:17.798Z,6.95
2023-03-30T05:16:09.803Z,6.75
2023-03-30T05:18:47.004Z,6.30
2023-03-30T05:21:32.351Z,5.35
2023-03-30T05:24:14.631Z,6.03
2023-03-30T05:27:02.305Z,6.13
2023-03-30T05:29:29.619Z,5.60
2023-03-30T05:32:20.060Z,5.97
2023-03-30T05:34:53.882Z,6.35
2023-03-30T05:37:43.802Z,6.65
2023-03-30T05:40:53.344Z,5.95
2023-03-30T05:43:34.222Z,7.10
2023-03-30T05:49:11.286Z,6.20
2023-03-30T05:52:04.882Z,7.57
2023-03-30T05:54:55.144Z,8.88
2023-03-30T05:57:48.977Z,5.38
2023-03-30T06:00:32.993Z,4.93
2023-03-30T06:03:12.315Z,6.18
2023-03-30T06:05:41.059Z,4.88
2023-03-30T06:08:08.731Z,4.75
2023-03-30T06:10:36.590Z,6.07
2023-03-30T06:13:04.645Z,5.85
2023-03-30T06:15:51.522Z,5.38
2023-03-30T06:18:22.353Z,4.10
2023-03-30T06:21:02.237Z,4.53
2023-03-30T06:23:30.535Z,4.60
2023-03-30T06:26:02.910Z,5.30
2023-03-30T06:28:36.197Z,4.35
2023-03-30T06:31:08.660Z,6.70
2023-03-30T06:33:37.888Z,4.53
2023-03-30T06:36:13.397Z,5.18
2023-03-30T06:38:43.286Z,4.30
2023-03-30T06:41:12.285Z,4.45
2023-03-30T06:43:43.347Z,4.47
2023-03-30T06:46:15.932Z,3.63
2023-03-30T06:48:46.847Z,4.22
2023-03-30T06:51:52.494Z,3.63
2023-03-30T06:54:20.079Z,3.78
2023-03-30T06:56:54.096Z,4.32
2023-03-30T06:59:21.595Z,4.22
2023-03-30T07:02:07.446Z,4.07
2023-03-30T07:05:07.962Z,4.30
2023-03-30T07:07:48.114Z,4.05
2023-03-30T07:10:15.964Z,5.10
2023-03-30T07:12:44.531Z,6.40
2023-03-30T07:15:12.637Z,5.55
2023-03-30T07:17:41.140Z,7.60
2023-03-30T07:20:09.115Z,10.38
2023-03-30T07:22:49.959Z,4.80
2023-03-30T07:25:18.442Z,9.07
2023-03-30T07:27:45.698Z,4.43
2023-03-30T07:30:21.194Z,5.45
2023-03-30T07:32:58.217Z,5.22
2023-03-30T07:35:26.797Z,4.60
2023-03-30T07:38:02.861Z,3.03
2023-03-30T07:40:34.682Z,2.70
2023-03-30T07:43:04.098Z,4.03
2023-03-30T07:45:32.088Z,2.80
2023-03-30T07:47:59.557Z,2.35
2023-03-30T07:50:26.885Z,5.57
2023-03-30T07:52:57.400Z,2.10
2023-03-30T07:55:25.773Z,2.03
2023-03-30T07:57:59.650Z,1.33
2023-03-30T08:00:27.843Z,1.48
2023-03-30T08:03:24.891Z,1.20
2023-03-30T08:05:56.423Z,0.93
2023-03-30T08:10:54.149Z,1.08
2023-03-30T08:13:22.135Z,0.73
2023-03-30T08:15:50.469Z,0.75
2023-03-30T08:18:17.463Z,0.75
2023-03-30T08:20:45.123Z,0.88
2023-03-30T08:23:13.106Z,0.38
2023-03-30T08:25:40.244Z,0.80
2023-03-30T08:28:07.874Z,0.50
2023-03-30T08:30:35.370Z,2.60
2023-03-30T08:33:02.836Z,1.17
2023-03-30T08:35:30.573Z,1.00
2023-03-30T08:37:57.881Z,0.85
2023-03-30T08:40:25.476Z,0.75
2023-03-30T08:43:16.058Z,1.17
2023-03-30T08:45:43.778Z,0.82
2023-03-30T08:48:21.936Z,1.65
2023-03-30T08:51:02.949Z,2.10
2023-03-30T08:53:31.678Z,1.42
2023-03-30T08:56:08.762Z,1.02
2023-03-30T08:59:06.614Z,1.42
2023-03-30T09:01:52.553Z,1.13
2023-03-30T09:04:40.986Z,0.70
2023-03-30T09:07:12.667Z,0.60
2023-03-30T09:09:47.929Z,3.20
2023-03-30T09:12:54.414Z,1.00
2023-03-30T09:15:56.746Z,1.02
2023-03-30T09:18:35.015Z,0.73
2023-03-30T09:21:03.825Z,0.98
2023-03-30T09:23:32.023Z,0.88
2023-03-30T09:26:24.889Z,0.63
2023-03-30T09:28:58.450Z,1.40
2023-03-30T09:31:41.241Z,1.33
2023-03-30T09:34:42.694Z,0.52
2023-03-30T09:37:12.002Z,0.90
2023-03-30T09:39:40.929Z,0.75
2023-03-30T09:42:23.140Z,0.90
2023-03-30T09:44:52.270Z,1.30
2023-03-30T09:47:26.073Z,0.77
2023-03-30T09:50:00.765Z,0.77
2023-03-30T09:52:29.681Z,1.27
2023-03-30T09:54:57.150Z,1.20
2023-03-30T09:57:31.521Z,1.10
2023-03-30T10:00:00.056Z,0.90
2023-03-30T10:02:31.383Z,1.10
2023-03-30T10:05:00.624Z,1.08
2023-03-30T10:07:40.887Z,0.85
2023-03-30T10:10:37.457Z,0.93
2023-03-30T10:13:15.232Z,1.33
2023-03-30T10:15:44.685Z,1.05
2023-03-30T10:18:29.244Z,1.38
2023-03-30T10:21:17.324Z,0.75
2023-03-30T10:23:46.096Z,1.10
2023-03-30T10:26:20.618Z,1.63
2023-03-30T10:29:07.234Z,0.95
2023-03-30T10:31:36.630Z,1.23
2023-03-30T10:34:05.752Z,1.30
2023-03-30T10:36:35.243Z,1.95
2023-03-30T10:39:27.566Z,1.02
2023-03-30T10:41:56.287Z,1.27
2023-03-30T10:44:27.854Z,1.25
2023-03-30T10:47:03.885Z,1.00
2023-03-30T10:49:39.523Z,1.17
2023-03-30T10:52:27.003Z,1.50
2023-03-30T10:55:12.119Z,1.27
2023-03-30T10:58:20.034Z,1.05
2023-03-30T11:01:16.672Z,1.02
2023-03-30T11:03:51.208Z,1.40
2023-03-30T11:06:31.937Z,1.77
2023-03-30T11:09:01.857Z,1.05
2023-03-30T11:11:33.981Z,1.35
2023-03-30T11:14:02.488Z,1.52
2023-03-30T11:16:32.691Z,2.75
2023-03-30T11:19:03.644Z,1.75
2023-03-30T11:21:32.207Z,1.67
2023-03-30T11:24:07.279Z,1.88
2023-03-30T11:26:34.367Z,1.35
2023-03-30T11:29:28.141Z,1.10
2023-03-30T11:32:16.907Z,1.27
2023-03-30T11:34:49.252Z,2.22
2023-03-30T11:37:40.623Z,1.17
2023-03-30T11:40:34.649Z,1.92
2023-03-30T11:43:01.885Z,1.77
2023-03-30T11:45:43.741Z,1.63
2023-03-30T11:48:14.100Z,4.15
2023-03-30T11:50:56.192Z,2.45
2023-03-30T11:53:33.375Z,1.70
2023-03-30T11:56:12.810Z,1.60
2023-03-30T11:58:48.043Z,1.30
2023-03-30T12:01:40.035Z,1.50
2023-03-30T12:04:15.101Z,1.80
2023-03-30T12:06:46.038Z,2.33
2023-03-30T12:09:24.330Z,1.80
2023-03-30T12:11:53.557Z,2.10
2023-03-30T12:14:34.712Z,0.80
2023-03-30T12:17:33.298Z,1.02
2023-03-30T12:20:06.172Z,1.00
2023-03-30T12:22:41.031Z,1.27
2023-03-30T12:25:17.742Z,1.65
2023-03-30T12:28:12.430Z,1.45
2023-03-30T12:30:54.774Z,2.47
2023-03-30T12:33:33.992Z,2.40
2023-03-30T12:36:05.526Z,2.10
2023-03-30T12:38:45.960Z,1.65
2023-03-30T12:41:20.273Z,1.27
2023-03-30T12:44:17.349Z,1.10
2023-03-30T12:46:58.450Z,0.60
2023-03-30T12:49:58.680Z,0.82
2023-03-30T12:52:36.321Z,1.20
2023-03-30T12:55:23.745Z,0.90
2023-03-30T12:58:12.894Z,0.57
2023-03-30T13:01:06.807Z,0.70
2023-03-30T13:03:40.667Z,0.95
2023-03-30T13:06:38.048Z,0.80
2023-03-30T13:09:08.407Z,0.70
2023-03-30T13:11:56.576Z,0.82
2023-03-30T13:14:30.209Z,0.63
2023-03-30T13:17:01.147Z,0.88
2023-03-30T13:19:32.258Z,0.82
2023-03-30T13:22:15.580Z,1.34
2023-03-30T13:24:43.336Z,1.20
2023-03-30T13:27:18.132Z,0.85
2023-03-30T13:29:59.719Z,1.35
2023-03-30T13:32:48.548Z,1.20
2023-03-30T13:35:42.000Z,0.77
2023-03-30T13:41:10.968Z,0.80
2023-03-30T13:43:44.383Z,1.13
2023-03-30T13:46:17.888Z,1.67
2023-03-30T13:49:03.885Z,1.30
2023-03-30T13:51:31.151Z,1.23
2023-03-30T13:54:13.562Z,1.63
2023-03-30T13:56:43.044Z,1.10
2023-03-30T13:59:20.875Z,1.65
2023-03-30T14:01:53.063Z,0.98
2023-03-30T14:04:20.402Z,1.38
2023-03-30T14:06:49.942Z,2.45
2023-03-30T14:09:22.822Z,2.30
2023-03-30T14:14:27.720Z,1.60
2023-03-30T14:16:56.465Z,1.20
2023-03-30T14:19:28.290Z,2.08
2023-03-30T14:22:00.954Z,1.25
2023-03-30T14:24:35.328Z,0.73
2023-03-30T14:27:07.686Z,1.23
2023-03-30T14:29:35.063Z,1.10
2023-03-30T14:34:33.392Z,1.27
2023-03-30T14:37:01.820Z,1.50
2023-03-30T14:39:30.417Z,1.75
2023-03-30T14:42:08.216Z,1.50
2023-03-30T14:44:38.381Z,1.35
2023-03-30T14:47:05.713Z,0.68
2023-03-30T14:49:33.301Z,0.70
2023-03-30T14:52:02.301Z,1.20
2023-03-30T14:54:29.446Z,0.88
2023-03-30T14:57:04.107Z,0.73
2023-03-30T14:59:33.500Z,0.80
2023-03-30T15:02:00.767Z,1.13
2023-03-30T15:04:32.408Z,1.30
2023-03-30T15:07:00.260Z,1.40
2023-03-30T15:09:27.881Z,1.20
2023-03-30T15:12:00.701Z,1.55
2023-03-30T15:14:31.785Z,1.23
2023-03-30T15:16:59.463Z,1.13
2023-03-30T15:19:31.366Z,1.40
2023-03-30T15:22:02.941Z,1.40
2023-03-30T15:24:34.907Z,1.20
2023-03-30T15:27:06.812Z,1.13
2023-03-30T15:29:34.194Z,1.33
2023-03-30T15:32:14.243Z,1.00
2023-03-30T15:35:05.572Z,1.55
2023-03-30T15:37:33.972Z,1.00
2023-03-30T15:40:01.193Z,1.38
2023-03-30T15:42:30.378Z,1.25
2023-03-30T15:45:11.458Z,1.33
2023-03-30T15:47:38.922Z,1.40
2023-03-30T15:50:11.474Z,1.13
2023-03-30T15:52:42.613Z,1.27
2023-03-30T15:55:26.632Z,1.45
2023-03-30T15:57:54.101Z,1.42
2023-03-30T16:00:23.553Z,1.63
2023-03-30T16:02:58.799Z,1.83
2023-03-30T16:05:28.295Z,0.98
2023-03-30T16:07:55.688Z,1.60
2023-03-30T16:10:30.500Z,1.25
2023-03-30T16:12:58.081Z,1.30
2023-03-30T16:15:27.528Z,1.33
2023-03-30T16:17:54.914Z,1.50
2023-03-30T16:20:24.131Z,1.42
2023-03-30T16:22:52.029Z,1.83
2023-03-30T16:25:23.307Z,1.60
2023-03-30T16:27:55.609Z,1.80
2023-03-30T16:30:29.060Z,1.17
2023-03-30T16:32:56.398Z,1.60
2023-03-30T16:35:23.451Z,1.90
2023-03-30T16:37:50.780Z,1.52
2023-03-30T16:40:36.810Z,1.75
2023-03-30T16:43:04.866Z,2.00
2023-03-30T16:45:32.230Z,2.85
2023-03-30T16:47:59.662Z,3.53
2023-03-30T16:50:42.915Z,3.55
2023-03-30T16:53:10.508Z,3.10
2023-03-30T16:55:38.795Z,3.85
2023-03-30T16:58:06.719Z,3.80
2023-03-30T17:00:48.467Z,3.00
2023-03-30T17:03:16.350Z,2.60
2023-03-30T17:05:48.049Z,2.70
2023-03-30T17:08:26.423Z,2.47
2023-03-30T17:10:55.489Z,2.30
2023-03-30T17:13:23.857Z,2.40
2023-03-30T17:15:50.949Z,2.05
2023-03-30T17:18:22.752Z,2.40
2023-03-30T17:20:52.048Z,2.30
2023-03-30T17:23:20.498Z,2.00
2023-03-30T17:25:49.205Z,2.22
2023-03-30T17:28:27.769Z,2.00
2023-03-30T17:30:57.530Z,2.30
2023-03-30T17:33:26.098Z,2.35
2023-03-30T17:35:58.829Z,2.63
2023-03-30T17:40:53.089Z,2.83
2023-03-30T17:43:20.493Z,2.45
2023-03-30T17:45:48.673Z,2.90
2023-03-30T17:48:17.201Z,2.60
2023-03-30T17:50:46.396Z,2.42
2023-03-30T17:53:17.080Z,3.17
2023-03-30T17:55:45.656Z,2.53
2023-03-30T17:58:20.826Z,2.30
2023-03-30T18:00:48.245Z,2.40
2023-03-30T18:03:16.365Z,2.35
2023-03-30T18:05:46.704Z,2.45
2023-03-30T18:08:17.095Z,2.30
2023-03-30T18:10:47.560Z,2.58
2023-03-30T18:13:15.607Z,2.38
2023-03-30T18:15:43.015Z,1.90
2023-03-30T18:18:10.850Z,2.50
2023-03-30T18:20:44.683Z,2.95
2023-03-30T18:23:11.888Z,2.22
2023-03-30T18:25:39.276Z,2.40
2023-03-30T18:28:15.297Z,2.33
2023-03-30T18:30:43.087Z,3.28
2023-03-30T18:33:10.568Z,2.70
2023-03-30T18:35:38.015Z,3.20
2023-03-30T18:38:05.199Z,2.15
2023-03-30T18:40:34.169Z,1.90
2023-03-30T18:43:01.640Z,2.60
2023-03-30T18:45:45.942Z,2.50
2023-03-30T18:48:14.829Z,2.63
2023-03-30T18:50:43.455Z,2.28
2023-03-30T18:53:12.205Z,2.67
2023-03-30T18:55:40.798Z,2.17
2023-03-30T18:58:16.181Z,1.90
2023-03-30T19:00:43.708Z,1.88
2023-03-30T19:03:11.361Z,2.42
2023-03-30T19:05:39.561Z,1.65
2023-03-30T19:08:09.805Z,1.85
2023-03-30T19:10:37.705Z,1.55
2023-03-30T19:13:05.430Z,2.00
2023-03-30T19:15:34.047Z,2.00
2023-03-30T19:18:02.163Z,2.67
2023-03-30T19:20:30.323Z,2.20
2023-03-30T19:22:58.040Z,1.85
2023-03-30T19:25:27.134Z,2.00
2023-03-30T19:28:03.113Z,2.22
2023-03-30T19:30:34.913Z,2.47
2023-03-30T19:33:04.954Z,1.83
2023-03-30T19:35:32.267Z,2.00
2023-03-30T19:37:59.449Z,2.40
2023-03-30T19:40:26.722Z,1.80
2023-03-30T19:42:53.816Z,1.52
2023-03-30T19:45:22.920Z,1.88
2023-03-30T19:47:51.086Z,1.83
2023-03-30T19:50:19.245Z,2.00
2023-03-30T19:52:48.638Z,1.67
2023-03-30T19:55:16.189Z,1.80
2023-03-30T19:57:43.659Z,1.63
2023-03-30T20:00:17.721Z,1.95
2023-03-30T20:02:46.771Z,1.90
2023-03-30T20:05:15.599Z,1.65
2023-03-30T20:07:43.785Z,1.30
2023-03-30T20:10:12.353Z,1.70
2023-03-30T20:12:39.502Z,1.60
2023-03-30T20:15:09.227Z,1.55
2023-03-30T20:17:37.776Z,1.70
2023-03-30T20:20:08.353Z,1.83
2023-03-30T20:22:36.207Z,1.65
2023-03-30T20:25:04.821Z,1.60
2023-03-30T20:27:33.402Z,2.00
2023-03-30T20:30:01.343Z,1.33
2023-03-30T20:32:29.036Z,1.40
2023-03-30T20:34:56.501Z,1.55
2023-03-30T20:37:23.644Z,1.27
2023-03-30T20:39:50.759Z,1.30
2023-03-30T20:42:25.519Z,1.20
2023-03-30T20:44:55.458Z,1.30
2023-03-30T20:47:23.068Z,1.20
2023-03-30T20:49:50.257Z,1.08
2023-03-30T20:52:18.077Z,1.08
2023-03-30T20:54:45.471Z,0.98
2023-03-30T20:57:12.691Z,0.93
2023-03-30T20:59:41.090Z,0.90
2023-03-30T21:02:11.207Z,1.00
2023-03-30T21:04:39.035Z,1.10
2023-03-30T21:07:06.480Z,0.80
2023-03-30T21:09:34.182Z,0.88
2023-03-30T21:12:01.571Z,0.90
2023-03-30T21:14:28.585Z,0.77
2023-03-30T21:16:55.790Z,0.75
2023-03-30T21:19:22.836Z,0.82
2023-03-30T21:21:50.139Z,0.73
2023-03-30T21:24:18.238Z,0.95
2023-03-30T21:26:45.786Z,0.70
2023-03-30T21:29:13.137Z,1.00
2023-03-30T21:31:40.277Z,0.82
2023-03-30T21:34:08.948Z,0.95
2023-03-30T21:36:36.832Z,1.20
2023-03-30T21:39:04.303Z,1.45
2023-03-30T21:41:31.490Z,1.40
2023-03-30T21:43:59.409Z,1.33
2023-03-30T21:46:26.803Z,1.20
2023-03-30T21:48:54.466Z,1.35
2023-03-30T21:51:22.697Z,1.30
2023-03-30T21:53:51.237Z,1.20
2023-03-30T21:56:19.385Z,1.00
2023-03-30T21:58:46.736Z,1.40
2023-03-30T22:01:13.950Z,1.55
2023-03-30T22:03:41.662Z,1.40
2023-03-30T22:06:10.404Z,1.40
2023-03-30T22:08:37.910Z,1.13
2023-03-30T22:11:07.942Z,1.00
2023-03-30T22:13:35.330Z,1.30
2023-03-30T22:16:06.126Z,1.17
2023-03-30T22:18:33.919Z,1.25
2023-03-30T22:21:02.709Z,1.40
2023-03-30T22:23:30.622Z,1.00
2023-03-30T22:25:58.609Z,1.08
2023-03-30T22:28:26.598Z,1.33
2023-03-30T22:30:53.661Z,1.55
2023-03-30T22:33:20.713Z,1.55
2023-03-30T22:35:48.421Z,1.60
2023-03-30T22:38:16.271Z,1.00
2023-03-30T22:40:43.904Z,1.08
2023-03-30T22:43:12.387Z,1.63
2023-03-30T22:45:40.179Z,1.17
2023-03-30T22:48:07.890Z,1.30
2023-03-30T22:50:35.877Z,1.23
2023-03-30T22:53:03.075Z,1.30
2023-03-30T22:55:30.940Z,1.00
2023-03-30T22:57:58.401Z,1.20
2023-03-30T23:00:25.502Z,0.63
2023-03-30T23:02:53.179Z,0.90
2023-03-30T23:05:25.194Z,0.90
2023-03-30T23:07:52.681Z,0.90
2023-03-30T23:10:21.899Z,1.17
2023-03-30T23:12:49.235Z,0.90
2023-03-30T23:15:18.602Z,1.77
2023-03-30T23:17:47.099Z,1.15
2023-03-30T23:20:15.078Z,1.15
2023-03-30T23:22:42.541Z,1.45
2023-03-30T23:25:10.410Z,1.20
2023-03-30T23:27:37.504Z,1.17
2023-03-30T23:30:05.589Z,1.20
2023-03-30T23:32:33.880Z,1.10
2023-03-30T23:35:02.308Z,1.77
2023-03-30T23:37:30.148Z,2.45
2023-03-30T23:39:59.066Z,1.40
2023-03-30T23:42:27.359Z,1.30
2023-03-30T23:44:54.362Z,1.40
2023-03-30T23:47:22.336Z,1.85
2023-03-30T23:49:50.135Z,1.65
2023-03-30T23:52:17.571Z,1.75
2023-03-30T23:54:44.543Z,1.92
2023-03-30T23:57:12.106Z,1.83
2023-03-30T23:59:39.105Z,2.30
